sensor_id;sensor_type;location;lat;lon;timestamp;temperature;humidity
42149;DHT22;64624;47.208;8.706;2024-02-23T00:00:50;15.70;62.00
42149;DHT22;64624;47.208;8.706;2024-02-23T00:03:16;15.70;61.90
42149;DHT22;64624;47.208;8.706;2024-02-23T00:05:41;15.70;62.10
42149;DHT22;64624;47.208;8.706;2024-02-23T00:08:07;15.70;62.00
42149;DHT22;64624;47.208;8.706;2024-02-23T00:10:34;15.70;62.10
42149;DHT22;64624;47.208;8.706;2024-02-23T00:13:00;15.80;62.00
42149;DHT22;64624;47.208;8.706;2024-02-23T00:15:26;15.80;61.90
42149;DHT22;64624;47.208;8.706;2024-02-23T00:17:52;15.80;61.90
42149;DHT22;64624;47.208;8.706;2024-02-23T00:20:18;15.80;61.90
42149;DHT22;64624;47.208;8.706;2024-02-23T00:22:43;15.70;62.00
42149;DHT22;64624;47.208;8.706;2024-02-23T00:25:09;15.70;62.00
42149;DHT22;64624;47.208;8.706;2024-02-23T00:27:35;15.80;61.90
42149;DHT22;64624;47.208;8.706;2024-02-23T00:30:01;15.80;61.80
42149;DHT22;64624;47.208;8.706;2024-02-23T00:32:27;15.80;61.90
42149;DHT22;64624;47.208;8.706;2024-02-23T00:34:53;15.80;61.70
42149;DHT22;64624;47.208;8.706;2024-02-23T00:37:18;15.80;61.70
42149;DHT22;64624;47.208;8.706;2024-02-23T00:39:44;15.80;61.80
42149;DHT22;64624;47.208;8.706;2024-02-23T00:42:10;15.70;61.40
42149;DHT22;64624;47.208;8.706;2024-02-23T00:44:35;15.80;61.30
42149;DHT22;64624;47.208;8.706;2024-02-23T00:47:02;15.80;61.30
42149;DHT22;64624;47.208;8.706;2024-02-23T00:49:29;15.80;61.30
42149;DHT22;64624;47.208;8.706;2024-02-23T00:51:55;15.80;61.40
42149;DHT22;64624;47.208;8.706;2024-02-23T00:54:21;15.80;61.30
42149;DHT22;64624;47.208;8.706;2024-02-23T00:56:47;15.80;61.30
42149;DHT22;64624;47.208;8.706;2024-02-23T00:59:13;15.80;61.30
42149;DHT22;64624;47.208;8.706;2024-02-23T01:01:38;15.80;61.20
42149;DHT22;64624;47.208;8.706;2024-02-23T01:04:04;15.70;61.30
42149;DHT22;64624;47.208;8.706;2024-02-23T01:06:30;15.70;61.30
42149;DHT22;64624;47.208;8.706;2024-02-23T01:08:55;15.80;61.20
42149;DHT22;64624;47.208;8.706;2024-02-23T01:11:21;15.80;61.10
42149;DHT22;64624;47.208;8.706;2024-02-23T01:13:47;15.80;61.00
42149;DHT22;64624;47.208;8.706;2024-02-23T01:16:12;15.70;60.90
42149;DHT22;64624;47.208;8.706;2024-02-23T01:18:38;15.80;60.80
42149;DHT22;64624;47.208;8.706;2024-02-23T01:21:04;15.70;60.70
42149;DHT22;64624;47.208;8.706;2024-02-23T01:23:29;15.70;60.80
42149;DHT22;64624;47.208;8.706;2024-02-23T01:25:55;15.70;60.80
42149;DHT22;64624;47.208;8.706;2024-02-23T01:28:21;15.70;60.50
42149;DHT22;64624;47.208;8.706;2024-02-23T01:30:47;15.70;60.50
42149;DHT22;64624;47.208;8.706;2024-02-23T01:33:12;15.70;60.50
42149;DHT22;64624;47.208;8.706;2024-02-23T01:35:38;15.70;60.60
42149;DHT22;64624;47.208;8.706;2024-02-23T01:38:04;15.70;60.60
42149;DHT22;64624;47.208;8.706;2024-02-23T01:40:30;15.70;60.70
42149;DHT22;64624;47.208;8.706;2024-02-23T01:43:05;15.80;60.80
42149;DHT22;64624;47.208;8.706;2024-02-23T01:45:31;15.80;60.80
42149;DHT22;64624;47.208;8.706;2024-02-23T01:48:01;15.70;60.60
42149;DHT22;64624;47.208;8.706;2024-02-23T01:50:27;15.70;60.50
42149;DHT22;64624;47.208;8.706;2024-02-23T01:52:56;15.70;60.40
42149;DHT22;64624;47.208;8.706;2024-02-23T01:55:22;15.80;60.40
42149;DHT22;64624;47.208;8.706;2024-02-23T01:57:48;15.70;60.20
42149;DHT22;64624;47.208;8.706;2024-02-23T02:00:16;15.70;60.20
42149;DHT22;64624;47.208;8.706;2024-02-23T02:02:43;15.70;60.50
42149;DHT22;64624;47.208;8.706;2024-02-23T02:05:09;15.80;60.50
42149;DHT22;64624;47.208;8.706;2024-02-23T02:07:35;15.80;60.50
42149;DHT22;64624;47.208;8.706;2024-02-23T02:10:02;15.80;60.50
42149;DHT22;64624;47.208;8.706;2024-02-23T02:12:29;15.70;60.50
42149;DHT22;64624;47.208;8.706;2024-02-23T02:14:55;15.80;60.40
42149;DHT22;64624;47.208;8.706;2024-02-23T02:17:21;15.80;60.30
42149;DHT22;64624;47.208;8.706;2024-02-23T02:19:50;15.70;60.40
42149;DHT22;64624;47.208;8.706;2024-02-23T02:22:16;15.80;60.50
42149;DHT22;64624;47.208;8.706;2024-02-23T02:24:41;15.70;60.40
42149;DHT22;64624;47.208;8.706;2024-02-23T02:27:09;15.70;60.40
42149;DHT22;64624;47.208;8.706;2024-02-23T02:29:35;15.80;60.50
42149;DHT22;64624;47.208;8.706;2024-02-23T02:32:01;15.80;60.50
42149;DHT22;64624;47.208;8.706;2024-02-23T02:34:28;15.70;60.40
42149;DHT22;64624;47.208;8.706;2024-02-23T02:36:55;15.80;60.60
42149;DHT22;64624;47.208;8.706;2024-02-23T02:39:20;15.80;60.60
42149;DHT22;64624;47.208;8.706;2024-02-23T02:41:48;15.70;60.40
42149;DHT22;64624;47.208;8.706;2024-02-23T02:44:14;15.80;60.40
42149;DHT22;64624;47.208;8.706;2024-02-23T02:46:41;15.70;60.40
42149;DHT22;64624;47.208;8.706;2024-02-23T02:49:06;15.80;60.50
42149;DHT22;64624;47.208;8.706;2024-02-23T02:51:32;15.70;60.40
42149;DHT22;64624;47.208;8.706;2024-02-23T02:53:58;15.70;60.10
42149;DHT22;64624;47.208;8.706;2024-02-23T02:56:23;15.70;60.00
42149;DHT22;64624;47.208;8.706;2024-02-23T02:58:49;15.70;59.90
42149;DHT22;64624;47.208;8.706;2024-02-23T03:01:15;15.80;59.90
42149;DHT22;64624;47.208;8.706;2024-02-23T03:03:41;15.70;59.80
42149;DHT22;64624;47.208;8.706;2024-02-23T03:06:07;15.70;59.80
42149;DHT22;64624;47.208;8.706;2024-02-23T03:08:33;15.70;59.80
42149;DHT22;64624;47.208;8.706;2024-02-23T03:10:59;15.70;59.80
42149;DHT22;64624;47.208;8.706;2024-02-23T03:13:25;15.70;59.70
42149;DHT22;64624;47.208;8.706;2024-02-23T03:15:50;15.70;59.70
42149;DHT22;64624;47.208;8.706;2024-02-23T03:18:16;15.70;59.60
42149;DHT22;64624;47.208;8.706;2024-02-23T03:20:42;15.70;59.60
42149;DHT22;64624;47.208;8.706;2024-02-23T03:23:08;15.70;59.50
42149;DHT22;64624;47.208;8.706;2024-02-23T03:25:34;15.70;59.50
42149;DHT22;64624;47.208;8.706;2024-02-23T03:28:00;15.70;59.50
42149;DHT22;64624;47.208;8.706;2024-02-23T03:30:26;15.70;59.70
42149;DHT22;64624;47.208;8.706;2024-02-23T03:32:52;15.70;59.50
42149;DHT22;64624;47.208;8.706;2024-02-23T03:35:17;15.70;59.30
42149;DHT22;64624;47.208;8.706;2024-02-23T03:37:43;15.70;59.20
42149;DHT22;64624;47.208;8.706;2024-02-23T03:40:09;15.70;59.30
42149;DHT22;64624;47.208;8.706;2024-02-23T03:42:38;15.70;59.50
42149;DHT22;64624;47.208;8.706;2024-02-23T03:45:05;15.70;59.40
42149;DHT22;64624;47.208;8.706;2024-02-23T03:47:31;15.70;59.30
42149;DHT22;64624;47.208;8.706;2024-02-23T03:49:56;15.70;59.40
42149;DHT22;64624;47.208;8.706;2024-02-23T03:52:22;15.70;59.50
42149;DHT22;64624;47.208;8.706;2024-02-23T03:54:48;15.70;59.40
42149;DHT22;64624;47.208;8.706;2024-02-23T03:57:15;15.70;59.50
42149;DHT22;64624;47.208;8.706;2024-02-23T03:59:53;15.70;59.60
42149;DHT22;64624;47.208;8.706;2024-02-23T04:02:19;15.70;59.50
42149;DHT22;64624;47.208;8.706;2024-02-23T04:04:47;15.70;59.40
42149;DHT22;64624;47.208;8.706;2024-02-23T04:07:12;15.70;59.50
42149;DHT22;64624;47.208;8.706;2024-02-23T04:09:39;15.70;59.40
42149;DHT22;64624;47.208;8.706;2024-02-23T04:12:05;15.70;59.40
42149;DHT22;64624;47.208;8.706;2024-02-23T04:14:32;15.70;59.50
42149;DHT22;64624;47.208;8.706;2024-02-23T04:17:04;15.70;59.40
42149;DHT22;64624;47.208;8.706;2024-02-23T04:19:30;15.70;59.40
42149;DHT22;64624;47.208;8.706;2024-02-23T04:21:56;15.70;59.40
42149;DHT22;64624;47.208;8.706;2024-02-23T04:24:21;15.70;59.30
42149;DHT22;64624;47.208;8.706;2024-02-23T04:26:47;15.70;59.20
42149;DHT22;64624;47.208;8.706;2024-02-23T04:29:13;15.70;59.40
42149;DHT22;64624;47.208;8.706;2024-02-23T04:31:38;15.70;59.40
42149;DHT22;64624;47.208;8.706;2024-02-23T04:34:04;15.70;59.30
42149;DHT22;64624;47.208;8.706;2024-02-23T04:36:30;15.70;59.40
42149;DHT22;64624;47.208;8.706;2024-02-23T04:38:57;15.70;59.40
42149;DHT22;64624;47.208;8.706;2024-02-23T04:41:22;15.70;59.40
42149;DHT22;64624;47.208;8.706;2024-02-23T04:43:48;15.70;59.40
42149;DHT22;64624;47.208;8.706;2024-02-23T04:46:14;15.70;59.40
42149;DHT22;64624;47.208;8.706;2024-02-23T04:48:40;15.70;59.40
42149;DHT22;64624;47.208;8.706;2024-02-23T04:51:07;15.70;59.50
42149;DHT22;64624;47.208;8.706;2024-02-23T04:53:38;15.70;59.50
42149;DHT22;64624;47.208;8.706;2024-02-23T04:56:07;15.70;59.50
42149;DHT22;64624;47.208;8.706;2024-02-23T04:58:33;15.70;59.50
42149;DHT22;64624;47.208;8.706;2024-02-23T05:00:58;15.70;59.40
42149;DHT22;64624;47.208;8.706;2024-02-23T05:03:24;15.70;59.40
42149;DHT22;64624;47.208;8.706;2024-02-23T05:05:50;15.70;59.30
42149;DHT22;64624;47.208;8.706;2024-02-23T05:08:20;15.70;59.30
42149;DHT22;64624;47.208;8.706;2024-02-23T05:10:48;15.70;59.30
42149;DHT22;64624;47.208;8.706;2024-02-23T05:13:14;15.70;59.30
42149;DHT22;64624;47.208;8.706;2024-02-23T05:15:40;15.70;59.30
42149;DHT22;64624;47.208;8.706;2024-02-23T05:18:06;15.70;59.30
42149;DHT22;64624;47.208;8.706;2024-02-23T05:20:32;15.70;59.30
42149;DHT22;64624;47.208;8.706;2024-02-23T05:22:57;15.70;59.20
42149;DHT22;64624;47.208;8.706;2024-02-23T05:25:23;15.70;59.30
42149;DHT22;64624;47.208;8.706;2024-02-23T05:27:51;15.70;59.30
42149;DHT22;64624;47.208;8.706;2024-02-23T05:30:17;15.70;59.30
42149;DHT22;64624;47.208;8.706;2024-02-23T05:32:43;15.70;59.20
42149;DHT22;64624;47.208;8.706;2024-02-23T05:35:09;15.70;59.30
42149;DHT22;64624;47.208;8.706;2024-02-23T05:37:35;15.70;59.30
42149;DHT22;64624;47.208;8.706;2024-02-23T05:40:01;15.70;59.30
42149;DHT22;64624;47.208;8.706;2024-02-23T05:42:31;15.70;59.80
42149;DHT22;64624;47.208;8.706;2024-02-23T05:44:58;15.70;59.40
42149;DHT22;64624;47.208;8.706;2024-02-23T05:47:23;15.70;59.30
42149;DHT22;64624;47.208;8.706;2024-02-23T05:49:50;15.70;59.30
42149;DHT22;64624;47.208;8.706;2024-02-23T05:52:16;15.70;59.40
42149;DHT22;64624;47.208;8.706;2024-02-23T05:54:42;15.70;59.40
42149;DHT22;64624;47.208;8.706;2024-02-23T05:57:08;15.70;59.70
42149;DHT22;64624;47.208;8.706;2024-02-23T05:59:33;15.70;59.30
42149;DHT22;64624;47.208;8.706;2024-02-23T06:01:59;15.70;59.20
42149;DHT22;64624;47.208;8.706;2024-02-23T06:04:25;15.70;59.10
42149;DHT22;64624;47.208;8.706;2024-02-23T06:06:50;15.70;59.20
42149;DHT22;64624;47.208;8.706;2024-02-23T06:09:16;15.70;59.10
42149;DHT22;64624;47.208;8.706;2024-02-23T06:11:42;15.60;58.90
42149;DHT22;64624;47.208;8.706;2024-02-23T06:14:08;15.70;58.90
42149;DHT22;64624;47.208;8.706;2024-02-23T06:16:34;15.70;58.90
42149;DHT22;64624;47.208;8.706;2024-02-23T06:19:00;15.70;58.80
42149;DHT22;64624;47.208;8.706;2024-02-23T06:21:26;15.70;58.70
42149;DHT22;64624;47.208;8.706;2024-02-23T06:23:52;15.70;58.80
42149;DHT22;64624;47.208;8.706;2024-02-23T06:26:18;15.60;58.90
42149;DHT22;64624;47.208;8.706;2024-02-23T06:28:44;15.70;59.10
42149;DHT22;64624;47.208;8.706;2024-02-23T06:31:09;15.70;59.00
42149;DHT22;64624;47.208;8.706;2024-02-23T06:33:35;15.70;59.10
42149;DHT22;64624;47.208;8.706;2024-02-23T06:36:01;15.70;59.10
42149;DHT22;64624;47.208;8.706;2024-02-23T06:38:27;15.70;59.20
42149;DHT22;64624;47.208;8.706;2024-02-23T06:40:54;15.70;59.10
42149;DHT22;64624;47.208;8.706;2024-02-23T06:43:20;15.70;59.00
42149;DHT22;64624;47.208;8.706;2024-02-23T06:45:46;15.70;58.90
42149;DHT22;64624;47.208;8.706;2024-02-23T06:48:12;15.70;58.90
42149;DHT22;64624;47.208;8.706;2024-02-23T06:50:38;15.70;58.80
42149;DHT22;64624;47.208;8.706;2024-02-23T06:53:03;15.70;58.70
42149;DHT22;64624;47.208;8.706;2024-02-23T06:55:29;15.70;58.70
42149;DHT22;64624;47.208;8.706;2024-02-23T06:57:55;15.70;58.80
42149;DHT22;64624;47.208;8.706;2024-02-23T07:00:21;15.70;58.60
42149;DHT22;64624;47.208;8.706;2024-02-23T07:02:47;15.70;58.60
42149;DHT22;64624;47.208;8.706;2024-02-23T07:05:13;15.70;58.50
42149;DHT22;64624;47.208;8.706;2024-02-23T07:07:40;15.70;58.50
42149;DHT22;64624;47.208;8.706;2024-02-23T07:10:07;15.70;58.40
42149;DHT22;64624;47.208;8.706;2024-02-23T07:12:33;15.70;58.30
42149;DHT22;64624;47.208;8.706;2024-02-23T07:14:59;15.70;58.20
42149;DHT22;64624;47.208;8.706;2024-02-23T07:17:25;15.70;58.30
42149;DHT22;64624;47.208;8.706;2024-02-23T07:19:50;15.70;58.30
42149;DHT22;64624;47.208;8.706;2024-02-23T07:22:18;15.70;58.20
42149;DHT22;64624;47.208;8.706;2024-02-23T07:24:44;15.70;58.20
42149;DHT22;64624;47.208;8.706;2024-02-23T07:27:10;15.70;58.20
42149;DHT22;64624;47.208;8.706;2024-02-23T07:29:36;15.70;58.20
42149;DHT22;64624;47.208;8.706;2024-02-23T07:32:02;15.70;58.00
42149;DHT22;64624;47.208;8.706;2024-02-23T07:34:28;15.70;58.00
42149;DHT22;64624;47.208;8.706;2024-02-23T07:36:54;15.70;58.00
42149;DHT22;64624;47.208;8.706;2024-02-23T07:39:21;15.70;57.90
42149;DHT22;64624;47.208;8.706;2024-02-23T07:41:47;15.70;58.00
42149;DHT22;64624;47.208;8.706;2024-02-23T07:44:13;15.70;58.00
42149;DHT22;64624;47.208;8.706;2024-02-23T07:46:39;15.70;57.90
42149;DHT22;64624;47.208;8.706;2024-02-23T07:49:05;15.60;57.90
42149;DHT22;64624;47.208;8.706;2024-02-23T07:51:35;15.70;57.90
42149;DHT22;64624;47.208;8.706;2024-02-23T07:54:00;15.70;57.90
42149;DHT22;64624;47.208;8.706;2024-02-23T07:56:26;15.70;57.90
42149;DHT22;64624;47.208;8.706;2024-02-23T07:58:53;15.70;57.80
42149;DHT22;64624;47.208;8.706;2024-02-23T08:01:19;15.70;57.70
42149;DHT22;64624;47.208;8.706;2024-02-23T08:03:44;15.70;57.80
42149;DHT22;64624;47.208;8.706;2024-02-23T08:06:10;15.70;57.90
42149;DHT22;64624;47.208;8.706;2024-02-23T08:08:38;15.60;57.80
42149;DHT22;64624;47.208;8.706;2024-02-23T08:11:04;15.70;57.80
42149;DHT22;64624;47.208;8.706;2024-02-23T08:13:30;15.60;57.60
42149;DHT22;64624;47.208;8.706;2024-02-23T08:15:57;15.60;57.70
42149;DHT22;64624;47.208;8.706;2024-02-23T08:18:23;15.60;57.70
42149;DHT22;64624;47.208;8.706;2024-02-23T08:20:49;15.60;57.60
42149;DHT22;64624;47.208;8.706;2024-02-23T08:23:15;15.60;57.60
42149;DHT22;64624;47.208;8.706;2024-02-23T08:25:41;15.70;57.70
42149;DHT22;64624;47.208;8.706;2024-02-23T08:28:08;15.60;57.70
42149;DHT22;64624;47.208;8.706;2024-02-23T08:30:34;15.60;57.50
42149;DHT22;64624;47.208;8.706;2024-02-23T08:32:59;15.70;57.50
42149;DHT22;64624;47.208;8.706;2024-02-23T08:35:26;15.70;57.70
42149;DHT22;64624;47.208;8.706;2024-02-23T08:37:51;15.60;57.50
42149;DHT22;64624;47.208;8.706;2024-02-23T08:40:17;15.60;57.50
42149;DHT22;64624;47.208;8.706;2024-02-23T08:42:43;15.70;57.50
42149;DHT22;64624;47.208;8.706;2024-02-23T08:45:09;15.60;57.40
42149;DHT22;64624;47.208;8.706;2024-02-23T08:47:39;15.70;57.60
42149;DHT22;64624;47.208;8.706;2024-02-23T08:50:06;15.60;57.60
42149;DHT22;64624;47.208;8.706;2024-02-23T08:52:32;15.60;57.70
42149;DHT22;64624;47.208;8.706;2024-02-23T08:54:57;15.70;57.70
42149;DHT22;64624;47.208;8.706;2024-02-23T08:57:23;15.60;57.60
42149;DHT22;64624;47.208;8.706;2024-02-23T08:59:49;15.60;57.60
42149;DHT22;64624;47.208;8.706;2024-02-23T09:02:15;15.60;57.60
42149;DHT22;64624;47.208;8.706;2024-02-23T09:04:41;15.60;57.60
42149;DHT22;64624;47.208;8.706;2024-02-23T09:07:06;15.60;57.70
42149;DHT22;64624;47.208;8.706;2024-02-23T09:09:32;15.70;57.80
42149;DHT22;64624;47.208;8.706;2024-02-23T09:11:58;15.70;57.80
42149;DHT22;64624;47.208;8.706;2024-02-23T09:14:24;15.70;57.90
42149;DHT22;64624;47.208;8.706;2024-02-23T09:16:51;15.60;57.80
42149;DHT22;64624;47.208;8.706;2024-02-23T09:19:17;15.70;57.80
42149;DHT22;64624;47.208;8.706;2024-02-23T09:21:44;15.70;57.90
42149;DHT22;64624;47.208;8.706;2024-02-23T09:24:10;15.60;57.70
42149;DHT22;64624;47.208;8.706;2024-02-23T09:26:36;15.60;57.70
42149;DHT22;64624;47.208;8.706;2024-02-23T09:29:02;15.60;57.60
42149;DHT22;64624;47.208;8.706;2024-02-23T09:31:27;15.60;57.70
42149;DHT22;64624;47.208;8.706;2024-02-23T09:33:57;15.60;57.70
42149;DHT22;64624;47.208;8.706;2024-02-23T09:36:23;15.60;57.60
42149;DHT22;64624;47.208;8.706;2024-02-23T09:38:50;15.60;57.50
42149;DHT22;64624;47.208;8.706;2024-02-23T09:41:23;15.60;57.60
42149;DHT22;64624;47.208;8.706;2024-02-23T09:43:49;15.60;57.60
42149;DHT22;64624;47.208;8.706;2024-02-23T09:46:17;15.60;57.50
42149;DHT22;64624;47.208;8.706;2024-02-23T09:48:44;15.70;57.50
42149;DHT22;64624;47.208;8.706;2024-02-23T09:51:10;15.60;57.40
42149;DHT22;64624;47.208;8.706;2024-02-23T09:53:40;15.60;57.50
42149;DHT22;64624;47.208;8.706;2024-02-23T09:56:06;15.60;57.50
42149;DHT22;64624;47.208;8.706;2024-02-23T09:58:34;15.60;57.60
42149;DHT22;64624;47.208;8.706;2024-02-23T10:01:02;15.60;57.60
42149;DHT22;64624;47.208;8.706;2024-02-23T10:03:28;15.60;57.50
42149;DHT22;64624;47.208;8.706;2024-02-23T10:05:56;15.60;57.50
42149;DHT22;64624;47.208;8.706;2024-02-23T10:08:22;15.60;57.40
42149;DHT22;64624;47.208;8.706;2024-02-23T10:10:48;15.60;57.40
42149;DHT22;64624;47.208;8.706;2024-02-23T10:13:21;15.60;57.20
42149;DHT22;64624;47.208;8.706;2024-02-23T10:15:48;15.60;57.20
42149;DHT22;64624;47.208;8.706;2024-02-23T10:18:14;15.60;57.20
42149;DHT22;64624;47.208;8.706;2024-02-23T10:20:40;15.60;57.30
42149;DHT22;64624;47.208;8.706;2024-02-23T10:23:08;15.60;57.30
42149;DHT22;64624;47.208;8.706;2024-02-23T10:25:34;15.60;57.20
42149;DHT22;64624;47.208;8.706;2024-02-23T10:28:05;15.60;57.30
42149;DHT22;64624;47.208;8.706;2024-02-23T10:30:31;15.60;57.30
42149;DHT22;64624;47.208;8.706;2024-02-23T10:32:59;15.60;57.30
42149;DHT22;64624;47.208;8.706;2024-02-23T10:35:25;15.60;57.20
42149;DHT22;64624;47.208;8.706;2024-02-23T10:37:53;15.60;57.10
42149;DHT22;64624;47.208;8.706;2024-02-23T10:40:21;15.60;57.10
42149;DHT22;64624;47.208;8.706;2024-02-23T10:42:50;15.60;57.10
42149;DHT22;64624;47.208;8.706;2024-02-23T10:45:21;15.60;57.20
42149;DHT22;64624;47.208;8.706;2024-02-23T10:47:50;15.60;57.20
42149;DHT22;64624;47.208;8.706;2024-02-23T10:50:17;15.60;57.20
42149;DHT22;64624;47.208;8.706;2024-02-23T10:52:45;15.60;57.00
42149;DHT22;64624;47.208;8.706;2024-02-23T10:55:12;15.60;56.90
42149;DHT22;64624;47.208;8.706;2024-02-23T10:57:38;15.60;57.00
42149;DHT22;64624;47.208;8.706;2024-02-23T11:00:08;15.60;56.90
42149;DHT22;64624;47.208;8.706;2024-02-23T11:02:41;15.60;56.90
42149;DHT22;64624;47.208;8.706;2024-02-23T11:05:08;15.60;56.90
42149;DHT22;64624;47.208;8.706;2024-02-23T11:07:41;15.60;56.90
42149;DHT22;64624;47.208;8.706;2024-02-23T11:10:07;15.60;57.00
42149;DHT22;64624;47.208;8.706;2024-02-23T11:12:35;15.60;56.90
42149;DHT22;64624;47.208;8.706;2024-02-23T11:15:01;15.60;57.00
42149;DHT22;64624;47.208;8.706;2024-02-23T11:17:30;15.60;57.00
42149;DHT22;64624;47.208;8.706;2024-02-23T11:19:57;15.50;57.00
42149;DHT22;64624;47.208;8.706;2024-02-23T11:22:35;15.60;57.10
42149;DHT22;64624;47.208;8.706;2024-02-23T11:25:11;15.60;57.10
42149;DHT22;64624;47.208;8.706;2024-02-23T11:30:08;15.60;57.10
42149;DHT22;64624;47.208;8.706;2024-02-23T11:32:42;15.60;57.20
42149;DHT22;64624;47.208;8.706;2024-02-23T11:35:10;15.60;57.30
42149;DHT22;64624;47.208;8.706;2024-02-23T11:40:13;15.60;57.20
42149;DHT22;64624;47.208;8.706;2024-02-23T11:42:41;15.60;57.20
42149;DHT22;64624;47.208;8.706;2024-02-23T11:45:08;15.60;57.30
42149;DHT22;64624;47.208;8.706;2024-02-23T11:47:34;15.60;57.30
42149;DHT22;64624;47.208;8.706;2024-02-23T11:49:59;15.60;57.30
42149;DHT22;64624;47.208;8.706;2024-02-23T11:52:25;15.60;57.30
42149;DHT22;64624;47.208;8.706;2024-02-23T11:54:51;15.60;57.40
42149;DHT22;64624;47.208;8.706;2024-02-23T11:57:18;15.60;57.40
42149;DHT22;64624;47.208;8.706;2024-02-23T11:59:44;15.50;57.30
42149;DHT22;64624;47.208;8.706;2024-02-23T12:02:10;15.60;57.40
42149;DHT22;64624;47.208;8.706;2024-02-23T12:04:35;15.60;57.40
42149;DHT22;64624;47.208;8.706;2024-02-23T12:07:01;15.60;57.40
42149;DHT22;64624;47.208;8.706;2024-02-23T12:09:27;15.60;57.50
42149;DHT22;64624;47.208;8.706;2024-02-23T12:11:53;15.60;57.50
42149;DHT22;64624;47.208;8.706;2024-02-23T12:14:19;15.60;57.50
42149;DHT22;64624;47.208;8.706;2024-02-23T12:16:45;15.60;57.50
42149;DHT22;64624;47.208;8.706;2024-02-23T12:19:11;15.60;57.50
42149;DHT22;64624;47.208;8.706;2024-02-23T12:21:37;15.60;57.60
42149;DHT22;64624;47.208;8.706;2024-02-23T12:24:05;15.60;57.60
42149;DHT22;64624;47.208;8.706;2024-02-23T12:26:34;15.60;57.60
42149;DHT22;64624;47.208;8.706;2024-02-23T12:29:01;15.60;57.60
42149;DHT22;64624;47.208;8.706;2024-02-23T12:31:28;15.60;57.50
42149;DHT22;64624;47.208;8.706;2024-02-23T12:33:53;15.60;57.50
42149;DHT22;64624;47.208;8.706;2024-02-23T12:36:19;15.60;57.50
42149;DHT22;64624;47.208;8.706;2024-02-23T12:38:45;15.60;58.00
42149;DHT22;64624;47.208;8.706;2024-02-23T12:41:11;15.60;57.50
42149;DHT22;64624;47.208;8.706;2024-02-23T12:43:40;15.60;57.40
42149;DHT22;64624;47.208;8.706;2024-02-23T12:46:06;15.60;57.50
42149;DHT22;64624;47.208;8.706;2024-02-23T12:48:34;15.60;57.50
42149;DHT22;64624;47.208;8.706;2024-02-23T12:51:00;15.60;57.50
42149;DHT22;64624;47.208;8.706;2024-02-23T12:53:37;15.60;57.40
42149;DHT22;64624;47.208;8.706;2024-02-23T12:56:05;15.60;57.40
42149;DHT22;64624;47.208;8.706;2024-02-23T12:58:33;15.60;57.40
42149;DHT22;64624;47.208;8.706;2024-02-23T13:00:59;15.60;57.50
42149;DHT22;64624;47.208;8.706;2024-02-23T13:03:26;15.60;57.60
42149;DHT22;64624;47.208;8.706;2024-02-23T13:06:01;15.60;57.70
42149;DHT22;64624;47.208;8.706;2024-02-23T13:08:28;15.60;57.90
42149;DHT22;64624;47.208;8.706;2024-02-23T13:10:55;15.60;57.90
42149;DHT22;64624;47.208;8.706;2024-02-23T13:13:21;15.60;58.00
42149;DHT22;64624;47.208;8.706;2024-02-23T13:15:49;15.60;57.90
42149;DHT22;64624;47.208;8.706;2024-02-23T13:18:15;15.60;57.80
42149;DHT22;64624;47.208;8.706;2024-02-23T13:20:41;15.60;57.90
42149;DHT22;64624;47.208;8.706;2024-02-23T13:23:10;15.60;57.90
42149;DHT22;64624;47.208;8.706;2024-02-23T21:17:35;15.40;55.30
42149;DHT22;64624;47.208;8.706;2024-02-23T21:20:01;15.50;55.20
42149;DHT22;64624;47.208;8.706;2024-02-23T21:22:28;15.40;55.30
42149;DHT22;64624;47.208;8.706;2024-02-23T21:24:54;15.40;55.20
42149;DHT22;64624;47.208;8.706;2024-02-23T21:27:20;15.40;55.20
42149;DHT22;64624;47.208;8.706;2024-02-23T21:29:45;15.40;55.10
42149;DHT22;64624;47.208;8.706;2024-02-23T21:32:11;15.40;54.90
42149;DHT22;64624;47.208;8.706;2024-02-23T21:34:40;15.40;54.90
42149;DHT22;64624;47.208;8.706;2024-02-23T21:37:06;15.40;55.00
42149;DHT22;64624;47.208;8.706;2024-02-23T21:39:32;15.40;54.90
42149;DHT22;64624;47.208;8.706;2024-02-23T21:41:58;15.40;54.90
42149;DHT22;64624;47.208;8.706;2024-02-23T21:44:24;15.40;54.80
42149;DHT22;64624;47.208;8.706;2024-02-23T21:46:49;15.40;55.20
42149;DHT22;64624;47.208;8.706;2024-02-23T21:49:15;15.40;54.80
42149;DHT22;64624;47.208;8.706;2024-02-23T21:51:41;15.40;54.80
42149;DHT22;64624;47.208;8.706;2024-02-23T21:54:07;15.40;54.70
42149;DHT22;64624;47.208;8.706;2024-02-23T21:56:33;15.40;54.70
42149;DHT22;64624;47.208;8.706;2024-02-23T21:58:59;15.40;54.60
42149;DHT22;64624;47.208;8.706;2024-02-23T22:01:25;15.40;54.70
42149;DHT22;64624;47.208;8.706;2024-02-23T22:03:51;15.40;54.60
42149;DHT22;64624;47.208;8.706;2024-02-23T22:06:20;15.40;54.60
42149;DHT22;64624;47.208;8.706;2024-02-23T22:08:48;15.40;54.50
42149;DHT22;64624;47.208;8.706;2024-02-23T22:11:15;15.40;54.30
42149;DHT22;64624;47.208;8.706;2024-02-23T22:13:41;15.40;54.40
42149;DHT22;64624;47.208;8.706;2024-02-23T22:16:07;15.40;54.40
42149;DHT22;64624;47.208;8.706;2024-02-23T22:18:32;15.40;54.40
42149;DHT22;64624;47.208;8.706;2024-02-23T22:20:59;15.40;54.30
42149;DHT22;64624;47.208;8.706;2024-02-23T22:23:26;15.40;54.30
42149;DHT22;64624;47.208;8.706;2024-02-23T22:25:52;15.40;54.80
42149;DHT22;64624;47.208;8.706;2024-02-23T22:28:18;15.40;54.30
42149;DHT22;64624;47.208;8.706;2024-02-23T22:30:44;15.40;54.30
42149;DHT22;64624;47.208;8.706;2024-02-23T22:33:09;15.40;54.20
42149;DHT22;64624;47.208;8.706;2024-02-23T22:35:35;15.40;54.20
42149;DHT22;64624;47.208;8.706;2024-02-23T22:38:01;15.40;54.20
42149;DHT22;64624;47.208;8.706;2024-02-23T22:40:28;15.40;54.20
42149;DHT22;64624;47.208;8.706;2024-02-23T22:42:53;15.40;54.20
42149;DHT22;64624;47.208;8.706;2024-02-23T22:45:20;15.40;54.20
42149;DHT22;64624;47.208;8.706;2024-02-23T22:47:47;15.40;54.20
42149;DHT22;64624;47.208;8.706;2024-02-23T22:50:13;15.40;54.30
42149;DHT22;64624;47.208;8.706;2024-02-23T22:52:41;15.40;54.30
42149;DHT22;64624;47.208;8.706;2024-02-23T22:55:07;15.40;54.30
42149;DHT22;64624;47.208;8.706;2024-02-23T22:57:32;15.40;54.30
42149;DHT22;64624;47.208;8.706;2024-02-23T22:59:58;15.40;54.30
42149;DHT22;64624;47.208;8.706;2024-02-23T23:02:24;15.40;54.30
42149;DHT22;64624;47.208;8.706;2024-02-23T23:04:49;15.40;54.30
42149;DHT22;64624;47.208;8.706;2024-02-23T23:07:15;15.40;54.30
42149;DHT22;64624;47.208;8.706;2024-02-23T23:09:41;15.40;54.30
42149;DHT22;64624;47.208;8.706;2024-02-23T23:12:09;15.30;54.20
42149;DHT22;64624;47.208;8.706;2024-02-23T23:14:35;15.40;54.10
42149;DHT22;64624;47.208;8.706;2024-02-23T23:17:01;15.40;54.30
42149;DHT22;64624;47.208;8.706;2024-02-23T23:19:27;15.40;54.20
42149;DHT22;64624;47.208;8.706;2024-02-23T23:21:52;15.30;54.10